sensor_id;sensor_type;location;lat;lon;timestamp;P1;durP1;ratioP1;P2;durP2;ratioP2
14663;SDS011;7419;52.184;5.944;2022-08-19T00:05:37;1.60;;;1.50;;
14663;SDS011;7419;52.184;5.944;2022-08-19T00:06:35;2.60;;;1.19;;
14663;SDS011;7419;52.184;5.944;2022-08-19T00:07:32;1.48;;;1.31;;
14663;SDS011;7419;52.184;5.944;2022-08-19T00:08:32;1.54;;;1.44;;
14663;SDS011;7419;52.184;5.944;2022-08-19T00:09:32;2.02;;;1.32;;
14663;SDS011;7419;52.184;5.944;2022-08-19T00:16:33;1.83;;;1.71;;
14663;SDS011;7419;52.184;5.944;2022-08-19T00:17:33;1.79;;;1.69;;
14663;SDS011;7419;52.184;5.944;2022-08-19T00:18:33;1.79;;;1.69;;
14663;SDS011;7419;52.184;5.944;2022-08-19T00:19:33;2.87;;;1.38;;
14663;SDS011;7419;52.184;5.944;2022-08-19T00:20:33;3.15;;;1.51;;
14663;SDS011;7419;52.184;5.944;2022-08-19T00:21:33;1.59;;;1.49;;
14663;SDS011;7419;52.184;5.944;2022-08-19T00:22:33;3.33;;;1.49;;
14663;SDS011;7419;52.184;5.944;2022-08-19T00:23:33;2.30;;;2.10;;
14663;SDS011;7419;52.184;5.944;2022-08-19T00:24:33;2.58;;;1.92;;
14663;SDS011;7419;52.184;5.944;2022-08-19T00:25:33;1.59;;;1.50;;
14663;SDS011;7419;52.184;5.944;2022-08-19T00:26:33;1.63;;;1.53;;
14663;SDS011;7419;52.184;5.944;2022-08-19T00:27:33;2.74;;;1.72;;
14663;SDS011;7419;52.184;5.944;2022-08-19T00:28:33;2.45;;;1.68;;
14663;SDS011;7419;52.184;5.944;2022-08-19T00:29:33;1.44;;;1.24;;
14663;SDS011;7419;52.184;5.944;2022-08-19T00:30:33;1.46;;;1.35;;
14663;SDS011;7419;52.184;5.944;2022-08-19T00:31:33;1.87;;;1.42;;
14663;SDS011;7419;52.184;5.944;2022-08-19T00:32:34;2.04;;;1.57;;
14663;SDS011;7419;52.184;5.944;2022-08-19T00:33:34;1.52;;;1.42;;
14663;SDS011;7419;52.184;5.944;2022-08-19T00:34:34;1.39;;;1.29;;
14663;SDS011;7419;52.184;5.944;2022-08-19T00:35:34;3.73;;;2.05;;
14663;SDS011;7419;52.184;5.944;2022-08-19T00:36:34;1.28;;;1.20;;
14663;SDS011;7419;52.184;5.944;2022-08-19T00:37:34;1.47;;;1.37;;
14663;SDS011;7419;52.184;5.944;2022-08-19T00:38:34;2.18;;;1.50;;
14663;SDS011;7419;52.184;5.944;2022-08-19T00:39:34;2.09;;;1.65;;
14663;SDS011;7419;52.184;5.944;2022-08-19T00:40:34;1.57;;;1.36;;
14663;SDS011;7419;52.184;5.944;2022-08-19T00:41:34;2.02;;;1.57;;
14663;SDS011;7419;52.184;5.944;2022-08-19T00:42:34;2.45;;;1.59;;
14663;SDS011;7419;52.184;5.944;2022-08-19T00:43:36;2.08;;;1.44;;
14663;SDS011;7419;52.184;5.944;2022-08-19T00:44:34;1.60;;;1.43;;
14663;SDS011;7419;52.184;5.944;2022-08-19T00:45:34;2.08;;;1.42;;
14663;SDS011;7419;52.184;5.944;2022-08-19T00:46:36;2.08;;;1.12;;
14663;SDS011;7419;52.184;5.944;2022-08-19T00:47:35;1.33;;;1.18;;
14663;SDS011;7419;52.184;5.944;2022-08-19T00:48:35;2.50;;;1.48;;
14663;SDS011;7419;52.184;5.944;2022-08-19T00:49:35;1.23;;;1.13;;
14663;SDS011;7419;52.184;5.944;2022-08-19T00:50:35;1.94;;;1.32;;
14663;SDS011;7419;52.184;5.944;2022-08-19T00:51:35;1.34;;;1.14;;
14663;SDS011;7419;52.184;5.944;2022-08-19T00:52:36;2.34;;;1.19;;
14663;SDS011;7419;52.184;5.944;2022-08-19T00:53:35;1.42;;;1.17;;
14663;SDS011;7419;52.184;5.944;2022-08-19T00:54:36;2.96;;;1.29;;
14663;SDS011;7419;52.184;5.944;2022-08-19T00:55:35;1.13;;;1.04;;
14663;SDS011;7419;52.184;5.944;2022-08-19T00:56:35;1.23;;;1.05;;
14663;SDS011;7419;52.184;5.944;2022-08-19T00:57:36;1.20;;;1.13;;
14663;SDS011;7419;52.184;5.944;2022-08-19T00:58:36;1.24;;;1.14;;
14663;SDS011;7419;52.184;5.944;2022-08-19T00:59:36;1.30;;;1.10;;
14663;SDS011;7419;52.184;5.944;2022-08-19T01:00:35;1.32;;;1.22;;
14663;SDS011;7419;52.184;5.944;2022-08-19T01:01:35;1.35;;;1.25;;
14663;SDS011;7419;52.184;5.944;2022-08-19T01:02:36;1.78;;;1.49;;
14663;SDS011;7419;52.184;5.944;2022-08-19T01:03:35;1.36;;;1.19;;
14663;SDS011;7419;52.184;5.944;2022-08-19T01:05:05;2.15;;;1.57;;
14663;SDS011;7419;52.184;5.944;2022-08-19T01:06:02;1.34;;;1.25;;
14663;SDS011;7419;52.184;5.944;2022-08-19T01:07:02;3.37;;;1.70;;
14663;SDS011;7419;52.184;5.944;2022-08-19T01:08:03;1.81;;;1.70;;
14663;SDS011;7419;52.184;5.944;2022-08-19T01:09:03;1.45;;;1.30;;
14663;SDS011;7419;52.184;5.944;2022-08-19T01:10:03;1.15;;;1.08;;
14663;SDS011;7419;52.184;5.944;2022-08-19T01:11:03;2.84;;;1.31;;
14663;SDS011;7419;52.184;5.944;2022-08-19T01:12:03;1.57;;;1.47;;
14663;SDS011;7419;52.184;5.944;2022-08-19T01:13:03;1.21;;;1.14;;
14663;SDS011;7419;52.184;5.944;2022-08-19T01:14:03;1.42;;;1.16;;
14663;SDS011;7419;52.184;5.944;2022-08-19T01:15:05;1.52;;;1.17;;
14663;SDS011;7419;52.184;5.944;2022-08-19T01:16:04;1.31;;;1.22;;
14663;SDS011;7419;52.184;5.944;2022-08-19T01:17:03;1.19;;;0.99;;
14663;SDS011;7419;52.184;5.944;2022-08-19T01:18:06;0.93;;;0.93;;
14663;SDS011;7419;52.184;5.944;2022-08-19T01:19:03;1.13;;;1.13;;
14663;SDS011;7419;52.184;5.944;2022-08-19T01:20:04;3.53;;;1.14;;
14663;SDS011;7419;52.184;5.944;2022-08-19T01:21:05;1.48;;;1.26;;
14663;SDS011;7419;52.184;5.944;2022-08-19T01:22:05;1.41;;;1.32;;
14663;SDS011;7419;52.184;5.944;2022-08-19T01:23:03;1.11;;;1.05;;
14663;SDS011;7419;52.184;5.944;2022-08-19T01:24:03;1.11;;;1.04;;
14663;SDS011;7419;52.184;5.944;2022-08-19T01:25:04;2.64;;;1.08;;
14663;SDS011;7419;52.184;5.944;2022-08-19T01:26:03;1.25;;;1.15;;
14663;SDS011;7419;52.184;5.944;2022-08-19T01:27:04;2.90;;;1.24;;
14663;SDS011;7419;52.184;5.944;2022-08-19T01:28:04;1.28;;;1.22;;
14663;SDS011;7419;52.184;5.944;2022-08-19T01:29:04;2.29;;;1.14;;
14663;SDS011;7419;52.184;5.944;2022-08-19T01:30:05;1.43;;;1.23;;
14663;SDS011;7419;52.184;5.944;2022-08-19T01:31:04;1.36;;;1.26;;
14663;SDS011;7419;52.184;5.944;2022-08-19T01:32:04;1.58;;;1.48;;
14663;SDS011;7419;52.184;5.944;2022-08-19T01:33:04;1.30;;;1.13;;
14663;SDS011;7419;52.184;5.944;2022-08-19T01:34:04;2.89;;;1.21;;
14663;SDS011;7419;52.184;5.944;2022-08-19T01:35:04;1.67;;;1.56;;
14663;SDS011;7419;52.184;5.944;2022-08-19T01:36:06;1.34;;;1.16;;
14663;SDS011;7419;52.184;5.944;2022-08-19T01:37:05;1.41;;;1.33;;
14663;SDS011;7419;52.184;5.944;2022-08-19T01:38:05;2.22;;;1.36;;
14663;SDS011;7419;52.184;5.944;2022-08-19T01:39:05;1.22;;;1.13;;
14663;SDS011;7419;52.184;5.944;2022-08-19T01:40:05;1.55;;;1.21;;
14663;SDS011;7419;52.184;5.944;2022-08-19T01:41:05;3.33;;;1.27;;
14663;SDS011;7419;52.184;5.944;2022-08-19T01:42:05;4.29;;;1.84;;
14663;SDS011;7419;52.184;5.944;2022-08-19T01:43:05;1.54;;;1.44;;
14663;SDS011;7419;52.184;5.944;2022-08-19T01:44:05;1.70;;;1.51;;
14663;SDS011;7419;52.184;5.944;2022-08-19T01:45:05;1.80;;;1.25;;
14663;SDS011;7419;52.184;5.944;2022-08-19T01:46:05;1.35;;;1.26;;
14663;SDS011;7419;52.184;5.944;2022-08-19T01:47:05;3.62;;;1.45;;
14663;SDS011;7419;52.184;5.944;2022-08-19T01:48:05;2.42;;;1.39;;
14663;SDS011;7419;52.184;5.944;2022-08-19T01:49:06;1.38;;;1.30;;
14663;SDS011;7419;52.184;5.944;2022-08-19T01:50:06;1.70;;;1.30;;
14663;SDS011;7419;52.184;5.944;2022-08-19T01:51:06;2.13;;;1.26;;
14663;SDS011;7419;52.184;5.944;2022-08-19T01:52:05;1.36;;;1.35;;
14663;SDS011;7419;52.184;5.944;2022-08-19T01:53:07;1.42;;;1.33;;
14663;SDS011;7419;52.184;5.944;2022-08-19T01:54:05;2.26;;;1.37;;
14663;SDS011;7419;52.184;5.944;2022-08-19T01:55:06;1.69;;;1.58;;
14663;SDS011;7419;52.184;5.944;2022-08-19T01:56:06;1.26;;;1.18;;
14663;SDS011;7419;52.184;5.944;2022-08-19T01:57:07;1.84;;;1.30;;
14663;SDS011;7419;52.184;5.944;2022-08-19T01:58:06;2.20;;;1.51;;
14663;SDS011;7419;52.184;5.944;2022-08-19T01:59:06;1.57;;;1.43;;
14663;SDS011;7419;52.184;5.944;2022-08-19T02:00:07;3.32;;;1.76;;
14663;SDS011;7419;52.184;5.944;2022-08-19T02:01:06;1.83;;;1.61;;
14663;SDS011;7419;52.184;5.944;2022-08-19T02:02:06;2.11;;;1.84;;
14663;SDS011;7419;52.184;5.944;2022-08-19T02:03:06;4.87;;;1.52;;
14663;SDS011;7419;52.184;5.944;2022-08-19T02:04:06;1.87;;;1.32;;
14663;SDS011;7419;52.184;5.944;2022-08-19T02:05:06;2.16;;;1.75;;
14663;SDS011;7419;52.184;5.944;2022-08-19T02:06:06;2.21;;;2.03;;
14663;SDS011;7419;52.184;5.944;2022-08-19T02:07:06;1.98;;;1.62;;
14663;SDS011;7419;52.184;5.944;2022-08-19T02:08:06;1.54;;;1.45;;
14663;SDS011;7419;52.184;5.944;2022-08-19T02:09:06;1.68;;;1.25;;
14663;SDS011;7419;52.184;5.944;2022-08-19T02:10:08;1.29;;;1.18;;
14663;SDS011;7419;52.184;5.944;2022-08-19T02:11:06;1.46;;;1.13;;
14663;SDS011;7419;52.184;5.944;2022-08-19T02:12:07;1.66;;;1.53;;
14663;SDS011;7419;52.184;5.944;2022-08-19T02:13:06;3.04;;;1.71;;
14663;SDS011;7419;52.184;5.944;2022-08-19T02:14:07;2.20;;;1.58;;
14663;SDS011;7419;52.184;5.944;2022-08-19T02:15:07;2.52;;;1.49;;
14663;SDS011;7419;52.184;5.944;2022-08-19T02:16:06;1.39;;;1.30;;
14663;SDS011;7419;52.184;5.944;2022-08-19T02:17:06;1.48;;;1.38;;
14663;SDS011;7419;52.184;5.944;2022-08-19T02:18:07;2.37;;;1.51;;
14663;SDS011;7419;52.184;5.944;2022-08-19T02:19:07;3.57;;;1.60;;
14663;SDS011;7419;52.184;5.944;2022-08-19T02:20:07;3.60;;;1.54;;
14663;SDS011;7419;52.184;5.944;2022-08-19T02:21:07;1.67;;;1.58;;
14663;SDS011;7419;52.184;5.944;2022-08-19T02:22:07;2.11;;;1.65;;
14663;SDS011;7419;52.184;5.944;2022-08-19T02:23:07;1.60;;;1.31;;
14663;SDS011;7419;52.184;5.944;2022-08-19T02:24:07;1.91;;;1.37;;
14663;SDS011;7419;52.184;5.944;2022-08-19T02:25:08;1.56;;;1.22;;
14663;SDS011;7419;52.184;5.944;2022-08-19T02:26:08;1.70;;;1.52;;
14663;SDS011;7419;52.184;5.944;2022-08-19T02:27:07;1.71;;;1.57;;
14663;SDS011;7419;52.184;5.944;2022-08-19T02:28:07;2.22;;;1.59;;
14663;SDS011;7419;52.184;5.944;2022-08-19T02:29:07;2.14;;;1.50;;
14663;SDS011;7419;52.184;5.944;2022-08-19T02:30:09;2.08;;;1.91;;
14663;SDS011;7419;52.184;5.944;2022-08-19T02:31:09;2.15;;;1.80;;
14663;SDS011;7419;52.184;5.944;2022-08-19T02:32:07;2.43;;;1.88;;
14663;SDS011;7419;52.184;5.944;2022-08-19T02:33:08;2.25;;;1.57;;
14663;SDS011;7419;52.184;5.944;2022-08-19T02:34:08;1.71;;;1.61;;
14663;SDS011;7419;52.184;5.944;2022-08-19T02:35:08;1.82;;;1.72;;
14663;SDS011;7419;52.184;5.944;2022-08-19T02:36:08;1.53;;;1.44;;
14663;SDS011;7419;52.184;5.944;2022-08-19T02:37:08;2.30;;;1.54;;
14663;SDS011;7419;52.184;5.944;2022-08-19T02:38:08;1.99;;;1.67;;
14663;SDS011;7419;52.184;5.944;2022-08-19T02:39:08;3.13;;;1.57;;
14663;SDS011;7419;52.184;5.944;2022-08-19T02:40:08;1.98;;;1.79;;
14663;SDS011;7419;52.184;5.944;2022-08-19T02:41:11;1.71;;;1.33;;
14663;SDS011;7419;52.184;5.944;2022-08-19T02:42:08;1.85;;;1.62;;
14663;SDS011;7419;52.184;5.944;2022-08-19T02:43:08;2.97;;;1.76;;
14663;SDS011;7419;52.184;5.944;2022-08-19T02:44:08;1.62;;;1.52;;
14663;SDS011;7419;52.184;5.944;2022-08-19T02:45:09;1.65;;;1.46;;
14663;SDS011;7419;52.184;5.944;2022-08-19T02:46:12;1.76;;;1.65;;
14663;SDS011;7419;52.184;5.944;2022-08-19T02:47:09;4.28;;;1.47;;
14663;SDS011;7419;52.184;5.944;2022-08-19T02:48:08;1.59;;;1.47;;
14663;SDS011;7419;52.184;5.944;2022-08-19T02:49:08;1.29;;;1.17;;
14663;SDS011;7419;52.184;5.944;2022-08-19T02:50:09;3.12;;;1.61;;
14663;SDS011;7419;52.184;5.944;2022-08-19T02:51:09;2.00;;;1.54;;
14663;SDS011;7419;52.184;5.944;2022-08-19T02:52:09;1.94;;;1.61;;
14663;SDS011;7419;52.184;5.944;2022-08-19T02:53:09;1.60;;;1.46;;
14663;SDS011;7419;52.184;5.944;2022-08-19T02:54:09;2.88;;;1.38;;
14663;SDS011;7419;52.184;5.944;2022-08-19T02:55:09;1.76;;;1.62;;
14663;SDS011;7419;52.184;5.944;2022-08-19T02:56:09;1.77;;;1.53;;
14663;SDS011;7419;52.184;5.944;2022-08-19T02:57:09;2.73;;;1.51;;
14663;SDS011;7419;52.184;5.944;2022-08-19T02:58:09;1.32;;;1.23;;
14663;SDS011;7419;52.184;5.944;2022-08-19T02:59:09;1.32;;;1.22;;
14663;SDS011;7419;52.184;5.944;2022-08-19T03:00:09;4.98;;;1.56;;
14663;SDS011;7419;52.184;5.944;2022-08-19T03:01:10;1.57;;;1.46;;
14663;SDS011;7419;52.184;5.944;2022-08-19T03:02:09;1.47;;;1.30;;
14663;SDS011;7419;52.184;5.944;2022-08-19T03:03:10;1.07;;;1.02;;
14663;SDS011;7419;52.184;5.944;2022-08-19T03:04:11;1.53;;;1.44;;
14663;SDS011;7419;52.184;5.944;2022-08-19T03:05:09;1.67;;;1.57;;
14663;SDS011;7419;52.184;5.944;2022-08-19T03:06:11;2.35;;;2.01;;
14663;SDS011;7419;52.184;5.944;2022-08-19T03:07:12;2.84;;;1.61;;
14663;SDS011;7419;52.184;5.944;2022-08-19T03:08:11;1.73;;;1.63;;
14663;SDS011;7419;52.184;5.944;2022-08-19T03:09:10;1.83;;;1.42;;
14663;SDS011;7419;52.184;5.944;2022-08-19T03:10:10;1.71;;;1.58;;
14663;SDS011;7419;52.184;5.944;2022-08-19T03:11:13;1.34;;;1.24;;
14663;SDS011;7419;52.184;5.944;2022-08-19T03:12:10;1.74;;;1.62;;
14663;SDS011;7419;52.184;5.944;2022-08-19T03:13:11;2.76;;;1.77;;
14663;SDS011;7419;52.184;5.944;2022-08-19T03:14:10;2.12;;;1.56;;
14663;SDS011;7419;52.184;5.944;2022-08-19T03:15:10;1.67;;;1.57;;
14663;SDS011;7419;52.184;5.944;2022-08-19T03:16:10;1.95;;;1.77;;
14663;SDS011;7419;52.184;5.944;2022-08-19T03:17:10;2.54;;;1.52;;
14663;SDS011;7419;52.184;5.944;2022-08-19T03:18:10;1.90;;;1.37;;
14663;SDS011;7419;52.184;5.944;2022-08-19T03:19:10;1.82;;;1.65;;
14663;SDS011;7419;52.184;5.944;2022-08-19T03:20:10;2.10;;;1.46;;
14663;SDS011;7419;52.184;5.944;2022-08-19T03:21:14;1.60;;;1.50;;
14663;SDS011;7419;52.184;5.944;2022-08-19T03:22:10;1.34;;;1.23;;
14663;SDS011;7419;52.184;5.944;2022-08-19T03:23:11;1.49;;;1.39;;
14663;SDS011;7419;52.184;5.944;2022-08-19T03:24:11;2.01;;;1.51;;
14663;SDS011;7419;52.184;5.944;2022-08-19T03:25:11;2.00;;;1.76;;
14663;SDS011;7419;52.184;5.944;2022-08-19T03:26:11;1.94;;;1.61;;
14663;SDS011;7419;52.184;5.944;2022-08-19T03:27:11;1.82;;;1.63;;
14663;SDS011;7419;52.184;5.944;2022-08-19T03:28:11;2.57;;;1.70;;
14663;SDS011;7419;52.184;5.944;2022-08-19T03:29:11;2.12;;;1.76;;
14663;SDS011;7419;52.184;5.944;2022-08-19T03:30:11;2.52;;;1.63;;
14663;SDS011;7419;52.184;5.944;2022-08-19T03:31:11;2.36;;;1.69;;
14663;SDS011;7419;52.184;5.944;2022-08-19T03:32:11;1.79;;;1.68;;
14663;SDS011;7419;52.184;5.944;2022-08-19T03:33:11;2.22;;;1.88;;
14663;SDS011;7419;52.184;5.944;2022-08-19T03:34:11;1.97;;;1.71;;
14663;SDS011;7419;52.184;5.944;2022-08-19T03:35:11;3.35;;;2.04;;
14663;SDS011;7419;52.184;5.944;2022-08-19T03:36:12;2.30;;;1.52;;
14663;SDS011;7419;52.184;5.944;2022-08-19T03:37:11;2.16;;;1.89;;
14663;SDS011;7419;52.184;5.944;2022-08-19T03:38:11;1.76;;;1.65;;
14663;SDS011;7419;52.184;5.944;2022-08-19T03:39:12;2.47;;;1.78;;
14663;SDS011;7419;52.184;5.944;2022-08-19T03:40:11;1.74;;;1.58;;
14663;SDS011;7419;52.184;5.944;2022-08-19T03:41:12;1.79;;;1.64;;
14663;SDS011;7419;52.184;5.944;2022-08-19T03:42:11;2.06;;;1.87;;
14663;SDS011;7419;52.184;5.944;2022-08-19T03:43:12;1.76;;;1.53;;
14663;SDS011;7419;52.184;5.944;2022-08-19T03:44:12;2.76;;;2.01;;
14663;SDS011;7419;52.184;5.944;2022-08-19T03:45:12;2.82;;;1.83;;
14663;SDS011;7419;52.184;5.944;2022-08-19T03:46:12;2.16;;;1.76;;
14663;SDS011;7419;52.184;5.944;2022-08-19T03:47:12;2.44;;;1.92;;
14663;SDS011;7419;52.184;5.944;2022-08-19T03:48:12;3.45;;;2.00;;
14663;SDS011;7419;52.184;5.944;2022-08-19T03:49:12;2.14;;;1.76;;
14663;SDS011;7419;52.184;5.944;2022-08-19T03:50:12;2.12;;;1.76;;
14663;SDS011;7419;52.184;5.944;2022-08-19T03:51:15;3.10;;;1.71;;
14663;SDS011;7419;52.184;5.944;2022-08-19T03:52:12;3.48;;;1.97;;
14663;SDS011;7419;52.184;5.944;2022-08-19T03:53:12;1.95;;;1.73;;
14663;SDS011;7419;52.184;5.944;2022-08-19T03:54:13;2.22;;;1.81;;
14663;SDS011;7419;52.184;5.944;2022-08-19T03:55:13;1.98;;;1.78;;
14663;SDS011;7419;52.184;5.944;2022-08-19T03:56:12;3.11;;;2.28;;
14663;SDS011;7419;52.184;5.944;2022-08-19T03:57:12;2.52;;;1.66;;
14663;SDS011;7419;52.184;5.944;2022-08-19T03:58:12;2.36;;;2.05;;
14663;SDS011;7419;52.184;5.944;2022-08-19T03:59:13;2.38;;;2.13;;
14663;SDS011;7419;52.184;5.944;2022-08-19T04:00:13;2.46;;;1.59;;
14663;SDS011;7419;52.184;5.944;2022-08-19T04:01:14;2.81;;;1.88;;
14663;SDS011;7419;52.184;5.944;2022-08-19T04:02:13;1.61;;;1.51;;
14663;SDS011;7419;52.184;5.944;2022-08-19T04:03:13;2.03;;;1.90;;
14663;SDS011;7419;52.184;5.944;2022-08-19T04:04:13;2.32;;;1.97;;
14663;SDS011;7419;52.184;5.944;2022-08-19T04:05:13;2.38;;;1.85;;
14663;SDS011;7419;52.184;5.944;2022-08-19T04:06:14;2.13;;;1.97;;
14663;SDS011;7419;52.184;5.944;2022-08-19T04:07:13;1.41;;;1.34;;
14663;SDS011;7419;52.184;5.944;2022-08-19T04:08:13;1.97;;;1.64;;
14663;SDS011;7419;52.184;5.944;2022-08-19T04:09:13;3.49;;;2.03;;
14663;SDS011;7419;52.184;5.944;2022-08-19T04:10:13;1.90;;;1.47;;
14663;SDS011;7419;52.184;5.944;2022-08-19T04:11:15;2.22;;;1.74;;
14663;SDS011;7419;52.184;5.944;2022-08-19T04:12:13;2.80;;;2.07;;
14663;SDS011;7419;52.184;5.944;2022-08-19T04:13:13;2.60;;;1.97;;
14663;SDS011;7419;52.184;5.944;2022-08-19T04:14:14;2.35;;;2.15;;
14663;SDS011;7419;52.184;5.944;2022-08-19T04:15:13;3.05;;;2.19;;
14663;SDS011;7419;52.184;5.944;2022-08-19T04:16:13;2.73;;;2.10;;
14663;SDS011;7419;52.184;5.944;2022-08-19T04:17:13;3.74;;;1.97;;
14663;SDS011;7419;52.184;5.944;2022-08-19T04:18:13;3.05;;;2.19;;
14663;SDS011;7419;52.184;5.944;2022-08-19T04:19:13;3.11;;;2.16;;
14663;SDS011;7419;52.184;5.944;2022-08-19T04:20:13;1.89;;;1.79;;
14663;SDS011;7419;52.184;5.944;2022-08-19T04:21:15;2.54;;;2.04;;
14663;SDS011;7419;52.184;5.944;2022-08-19T04:22:13;2.53;;;1.94;;
14663;SDS011;7419;52.184;5.944;2022-08-19T04:23:14;2.69;;;2.33;;
14663;SDS011;7419;52.184;5.944;2022-08-19T04:24:14;2.76;;;2.05;;
14663;SDS011;7419;52.184;5.944;2022-08-19T04:25:14;2.95;;;2.18;;
14663;SDS011;7419;52.184;5.944;2022-08-19T04:26:14;2.58;;;2.28;;
14663;SDS011;7419;52.184;5.944;2022-08-19T04:27:14;2.51;;;2.31;;
14663;SDS011;7419;52.184;5.944;2022-08-19T04:28:14;2.38;;;1.93;;
14663;SDS011;7419;52.184;5.944;2022-08-19T04:29:15;2.59;;;1.89;;
14663;SDS011;7419;52.184;5.944;2022-08-19T04:30:14;2.85;;;2.24;;
14663;SDS011;7419;52.184;5.944;2022-08-19T04:31:14;2.69;;;1.55;;
14663;SDS011;7419;52.184;5.944;2022-08-19T04:32:14;3.30;;;2.37;;
14663;SDS011;7419;52.184;5.944;2022-08-19T04:33:15;2.92;;;2.13;;
14663;SDS011;7419;52.184;5.944;2022-08-19T04:34:15;3.77;;;2.02;;
14663;SDS011;7419;52.184;5.944;2022-08-19T04:35:14;2.10;;;1.83;;
14663;SDS011;7419;52.184;5.944;2022-08-19T04:36:16;3.57;;;2.26;;
14663;SDS011;7419;52.184;5.944;2022-08-19T04:37:14;2.02;;;1.83;;
14663;SDS011;7419;52.184;5.944;2022-08-19T04:38:15;3.66;;;2.49;;
14663;SDS011;7419;52.184;5.944;2022-08-19T04:39:15;2.47;;;2.26;;
14663;SDS011;7419;52.184;5.944;2022-08-19T04:40:15;3.21;;;2.24;;
14663;SDS011;7419;52.184;5.944;2022-08-19T04:41:15;2.75;;;2.50;;
14663;SDS011;7419;52.184;5.944;2022-08-19T04:42:15;3.35;;;2.27;;
14663;SDS011;7419;52.184;5.944;2022-08-19T04:43:15;3.80;;;2.30;;
14663;SDS011;7419;52.184;5.944;2022-08-19T04:44:15;3.56;;;2.51;;
14663;SDS011;7419;52.184;5.944;2022-08-19T04:45:15;3.05;;;2.40;;
14663;SDS011;7419;52.184;5.944;2022-08-19T04:46:15;3.10;;;2.34;;
14663;SDS011;7419;52.184;5.944;2022-08-19T04:47:15;3.09;;;2.24;;
14663;SDS011;7419;52.184;5.944;2022-08-19T04:48:15;3.17;;;2.46;;
14663;SDS011;7419;52.184;5.944;2022-08-19T04:49:16;2.25;;;2.04;;
14663;SDS011;7419;52.184;5.944;2022-08-19T04:50:15;3.40;;;2.55;;
14663;SDS011;7419;52.184;5.944;2022-08-19T04:51:15;2.60;;;2.24;;
14663;SDS011;7419;52.184;5.944;2022-08-19T04:52:15;2.15;;;1.94;;
14663;SDS011;7419;52.184;5.944;2022-08-19T04:53:15;3.50;;;2.28;;
14663;SDS011;7419;52.184;5.944;2022-08-19T04:54:16;4.26;;;2.64;;
14663;SDS011;7419;52.184;5.944;2022-08-19T04:55:15;2.54;;;2.20;;
14663;SDS011;7419;52.184;5.944;2022-08-19T04:56:16;2.30;;;1.93;;
14663;SDS011;7419;52.184;5.944;2022-08-19T04:57:16;2.44;;;1.69;;
14663;SDS011;7419;52.184;5.944;2022-08-19T04:58:16;2.68;;;2.01;;
14663;SDS011;7419;52.184;5.944;2022-08-19T04:59:16;3.71;;;2.62;;
14663;SDS011;7419;52.184;5.944;2022-08-19T05:00:16;4.07;;;2.38;;
14663;SDS011;7419;52.184;5.944;2022-08-19T05:01:17;3.09;;;2.42;;
14663;SDS011;7419;52.184;5.944;2022-08-19T05:02:16;2.35;;;2.15;;
14663;SDS011;7419;52.184;5.944;2022-08-19T05:03:16;3.11;;;2.31;;
14663;SDS011;7419;52.184;5.944;2022-08-19T05:04:18;4.02;;;2.10;;
14663;SDS011;7419;52.184;5.944;2022-08-19T05:05:16;2.36;;;2.06;;
14663;SDS011;7419;52.184;5.944;2022-08-19T05:06:17;3.09;;;2.28;;
14663;SDS011;7419;52.184;5.944;2022-08-19T05:07:16;3.28;;;2.29;;
14663;SDS011;7419;52.184;5.944;2022-08-19T05:08:17;3.40;;;2.47;;
14663;SDS011;7419;52.184;5.944;2022-08-19T05:09:16;3.83;;;2.22;;
14663;SDS011;7419;52.184;5.944;2022-08-19T05:10:16;3.34;;;2.24;;
14663;SDS011;7419;52.184;5.944;2022-08-19T05:11:18;2.24;;;2.01;;
14663;SDS011;7419;52.184;5.944;2022-08-19T05:12:17;4.06;;;1.94;;
14663;SDS011;7419;52.184;5.944;2022-08-19T05:13:17;2.59;;;2.34;;
14663;SDS011;7419;52.184;5.944;2022-08-19T05:14:16;4.91;;;1.96;;
14663;SDS011;7419;52.184;5.944;2022-08-19T05:15:17;2.16;;;1.81;;
14663;SDS011;7419;52.184;5.944;2022-08-19T05:16:17;2.35;;;2.02;;
14663;SDS011;7419;52.184;5.944;2022-08-19T05:17:17;2.41;;;2.08;;
14663;SDS011;7419;52.184;5.944;2022-08-19T05:18:17;3.55;;;2.07;;
14663;SDS011;7419;52.184;5.944;2022-08-19T05:19:17;4.03;;;2.36;;
14663;SDS011;7419;52.184;5.944;2022-08-19T05:20:17;3.80;;;2.64;;
14663;SDS011;7419;52.184;5.944;2022-08-19T05:21:18;2.44;;;2.01;;
14663;SDS011;7419;52.184;5.944;2022-08-19T05:22:17;4.03;;;2.70;;
14663;SDS011;7419;52.184;5.944;2022-08-19T05:23:39;3.41;;;2.49;;
14663;SDS011;7419;52.184;5.944;2022-08-19T05:24:39;3.06;;;2.15;;
14663;SDS011;7419;52.184;5.944;2022-08-19T05:25:39;3.32;;;2.41;;
14663;SDS011;7419;52.184;5.944;2022-08-19T05:26:39;4.55;;;2.53;;
14663;SDS011;7419;52.184;5.944;2022-08-19T05:27:39;2.86;;;2.48;;
14663;SDS011;7419;52.184;5.944;2022-08-19T05:28:39;3.58;;;2.29;;
14663;SDS011;7419;52.184;5.944;2022-08-19T05:29:39;2.89;;;2.33;;
14663;SDS011;7419;52.184;5.944;2022-08-19T05:30:39;3.72;;;2.75;;
14663;SDS011;7419;52.184;5.944;2022-08-19T05:31:39;2.71;;;1.97;;
14663;SDS011;7419;52.184;5.944;2022-08-19T05:32:39;3.66;;;2.52;;
14663;SDS011;7419;52.184;5.944;2022-08-19T05:33:39;4.01;;;2.52;;
14663;SDS011;7419;52.184;5.944;2022-08-19T05:34:39;6.10;;;2.66;;
14663;SDS011;7419;52.184;5.944;2022-08-19T05:35:39;2.59;;;2.37;;
14663;SDS011;7419;52.184;5.944;2022-08-19T05:36:40;3.38;;;2.44;;
14663;SDS011;7419;52.184;5.944;2022-08-19T05:37:39;3.44;;;2.44;;
14663;SDS011;7419;52.184;5.944;2022-08-19T05:38:39;3.15;;;2.61;;
14663;SDS011;7419;52.184;5.944;2022-08-19T05:39:39;2.67;;;2.21;;
14663;SDS011;7419;52.184;5.944;2022-08-19T05:40:39;2.74;;;2.35;;
14663;SDS011;7419;52.184;5.944;2022-08-19T05:41:40;2.87;;;2.12;;
14663;SDS011;7419;52.184;5.944;2022-08-19T05:42:40;2.59;;;2.39;;
14663;SDS011;7419;52.184;5.944;2022-08-19T05:43:40;2.84;;;2.39;;
14663;SDS011;7419;52.184;5.944;2022-08-19T05:44:41;3.06;;;2.09;;
14663;SDS011;7419;52.184;5.944;2022-08-19T05:45:40;2.19;;;1.96;;
14663;SDS011;7419;52.184;5.944;2022-08-19T05:46:40;2.47;;;2.27;;
14663;SDS011;7419;52.184;5.944;2022-08-19T05:47:40;3.24;;;2.38;;
14663;SDS011;7419;52.184;5.944;2022-08-19T05:48:40;3.08;;;2.75;;
14663;SDS011;7419;52.184;5.944;2022-08-19T05:50:48;3.10;;;2.74;;
14663;SDS011;7419;52.184;5.944;2022-08-19T05:51:48;3.52;;;2.49;;
14663;SDS011;7419;52.184;5.944;2022-08-19T05:52:48;2.97;;;2.39;;
14663;SDS011;7419;52.184;5.944;2022-08-19T05:53:48;3.46;;;2.54;;
14663;SDS011;7419;52.184;5.944;2022-08-19T05:54:48;2.39;;;2.23;;
14663;SDS011;7419;52.184;5.944;2022-08-19T05:55:48;2.93;;;2.43;;
14663;SDS011;7419;52.184;5.944;2022-08-19T05:56:48;3.17;;;2.65;;
14663;SDS011;7419;52.184;5.944;2022-08-19T05:57:48;5.47;;;2.82;;
14663;SDS011;7419;52.184;5.944;2022-08-19T05:58:48;3.11;;;2.60;;
14663;SDS011;7419;52.184;5.944;2022-08-19T05:59:48;4.37;;;3.06;;
14663;SDS011;7419;52.184;5.944;2022-08-19T06:00:48;3.54;;;2.36;;
14663;SDS011;7419;52.184;5.944;2022-08-19T06:01:50;5.81;;;3.83;;
14663;SDS011;7419;52.184;5.944;2022-08-19T06:02:49;4.69;;;3.44;;
14663;SDS011;7419;52.184;5.944;2022-08-19T06:03:49;7.12;;;3.74;;
14663;SDS011;7419;52.184;5.944;2022-08-19T06:04:49;5.59;;;4.09;;
14663;SDS011;7419;52.184;5.944;2022-08-19T06:05:49;4.80;;;3.53;;
14663;SDS011;7419;52.184;5.944;2022-08-19T06:06:50;3.92;;;2.92;;
14663;SDS011;7419;52.184;5.944;2022-08-19T06:07:49;5.90;;;4.30;;
14663;SDS011;7419;52.184;5.944;2022-08-19T06:08:49;4.67;;;3.31;;
14663;SDS011;7419;52.184;5.944;2022-08-19T06:09:50;5.44;;;3.64;;
14663;SDS011;7419;52.184;5.944;2022-08-19T06:10:49;6.31;;;4.85;;
14663;SDS011;7419;52.184;5.944;2022-08-19T06:11:50;6.80;;;4.53;;
14663;SDS011;7419;52.184;5.944;2022-08-19T06:12:49;7.29;;;4.87;;
14663;SDS011;7419;52.184;5.944;2022-08-19T06:13:50;5.91;;;4.11;;
14663;SDS011;7419;52.184;5.944;2022-08-19T06:14:49;4.35;;;3.57;;
14663;SDS011;7419;52.184;5.944;2022-08-19T06:15:49;7.18;;;4.68;;
14663;SDS011;7419;52.184;5.944;2022-08-19T06:16:50;4.36;;;3.83;;
14663;SDS011;7419;52.184;5.944;2022-08-19T06:17:49;7.11;;;4.18;;
14663;SDS011;7419;52.184;5.944;2022-08-19T06:18:50;7.20;;;4.24;;
14663;SDS011;7419;52.184;5.944;2022-08-19T06:19:50;5.45;;;3.34;;